x

8419317 - Wells, Me (welm1) Weather Station

1:54 - Tue 21st Feb 2017 All times are EST. -5 hours from GMT.

  • Wind
    1mph, 2mph gusts
  • Sea Temp 38°f
  • Ar Temp 27°f
  • Sea Pressure 1028.2mb
  • 8419317 - Wells, Me
  • 8419317 - Wells, Me

More Historic Weather Station data

Upgrade to MSW Pro to gain access to the past 30 days of data for over 8000 Wavebouys and Weather Stations around the globe.

Join Pro

Comparision Forecast

View Surf forecast
   
Ter 02/21 1:54 1 2 mph 1028.2mb 38f 27f
1:48 3 5 mph 1028.3mb 38f 27f
1:42 3 5 mph 1028.3mb 38f 28f
1:36 3 5 mph 1028.3mb 38f 28f
1:30 5 6 mph 1028.5mb 38f 28f
1:24 3 5 mph 1028.5mb 38f 28f
1:18 3
mph
1028.7mb 38f 28f
1:12 1 2 mph 1028.8mb 38f 28f
1:06 2 5 mph 1028.9mb 38f 28f
1:00 3 5 mph 1028.8mb 38f 28f
12:54 3 5 mph 1028.7mb 38f 28f
12:48 2 5 mph 1028.7mb 38f -
12:42 1 3 mph 1028.6mb 38f -
12:36 2 5 mph 1028.5mb 38f -
12:30 3 5 mph 1028.5mb 38f 29f
12:24 3 6 mph 1028.4mb 38f 29f
12:18 6
mph
1028.3mb 38f 29f
12:12 5 6 mph 1028.3mb 38f 29f
12:06 3 5 mph 1028.2mb 38f 29f
12:00 3 6 mph 1028.2mb 38f 29f
Seg 02/20 11:54 3 5 mph 1028.2mb 38f 29f
11:48 2 6 mph 1028.1mb 38f 30f
11:42 3 5 mph 1028.1mb 38f 30f
11:36 3 7 mph 1028mb 38f 30f
11:30 6 8 mph 1028mb 38f 30f
11:24 6 7 mph 1027.9mb 38f 30f
11:18 5 6 mph 1027.8mb 38f 31f
11:12 5 8 mph 1027.8mb 38f 31f
11:06 6 8 mph 1027.7mb 38f 31f
11:00 6 9 mph 1027.6mb 38f 31f
10:54 7 8 mph 1027.5mb 38f 31f
10:48 6 9 mph 1027.6mb 38f 31f
10:42 6 9 mph 1027.5mb 38f 31f
10:36 7 8 mph 1027.4mb 38f 31f
10:30 7 8 mph 1027.4mb 38f 31f
10:24 6 8 mph 1027.4mb 38f 31f
10:18 7 8 mph 1027.5mb 38f 31f
10:12 6 8 mph 1027.4mb 38f 31f
10:06 7 8 mph 1027.3mb 38f 32f
10:00 8 10 mph 1027.3mb 38f 32f
9:54 8 10 mph 1027.3mb 38f 33f
9:48 9 11 mph 1027.2mb 38f 33f
9:42 10 13 mph 1027.1mb 38f 33f
9:36 10 14 mph 1027mb 38f 33f
9:30 9 11 mph 1027mb 38f 33f
9:24 8 11 mph 1027.1mb 38f 34f
9:18 9 11 mph 1027mb 38f 34f
9:12 10 14 mph 1026.8mb 38f 34f
9:06 11 14 mph 1026.7mb 38f 34f
9:00 11 15 mph 1026.8mb 38f 34f
8:48 8 10 mph 1026.8mb 38f 34f
8:42 8 10 mph 1026.8mb 38f 35f
8:36 8 10 mph 1026.9mb 38f 35f
8:30 10 13 mph 1026.8mb 38f 35f
8:24 10 13 mph 1026.8mb 38f 36f
8:18 9 14 mph 1026.9mb 38f 35f
8:12 10 16 mph 1026.8mb 38f 36f
8:06 13 17 mph 1026.7mb 38f 36f
8:00 10 14 mph 1026.6mb 38f 36f
7:54 11 14 mph 1026.5mb 38f 36f
7:48 11 13 mph 1026.4mb 38f 36f
7:42 9 13 mph 1026.4mb 38f 37f
7:36 9 10 mph 1026.2mb 38f 37f
7:30 9 11 mph 1026.2mb 38f 37f
7:24 9 13 mph 1026mb 38f 37f
7:18 9 11 mph 1026mb 38f 37f
7:12 9 13 mph 1025.8mb 38f 36f
7:06 8 9 mph 1025.8mb 38f 36f
7:00 7 8 mph 1025.7mb 38f 37f
6:54 7 8 mph 1025.7mb 38f 37f
6:48 7 8 mph 1025.6mb 38f 37f
6:42 7 10 mph 1025.5mb 38f 37f
6:36 7 9 mph 1025.4mb 38f 37f
6:30 8 9 mph 1025.3mb 38f 37f
6:24 8 9 mph 1025.2mb 38f 38f
6:18 7 8 mph 1025.2mb 38f 38f
6:12 8 10 mph 1025.1mb 38f 38f
6:06 8 10 mph 1024.9mb 38f 38f
6:00 9 11 mph 1024.9mb 38f 38f
5:54 6 8 mph 1024.8mb 38f 39f
5:48 7 10 mph 1024.7mb 38f 39f
5:42 8 9 mph 1024.6mb 38f 39f
5:36 8 10 mph 1024.5mb 38f 39f
5:30 8 11 mph 1024.2mb 38f 40f
5:24 9 13 mph 1024.2mb 38f 40f
5:18 8 14 mph 1024mb 38f 40f
5:12 10 13 mph 1023.8mb 38f 40f
5:06 10 18 mph 1023.7mb 38f 40f
5:00 16 20 mph 1023.6mb 39f 41f
4:54 13 18 mph 1023.6mb 39f 41f
4:48 14 21 mph 1023.5mb 39f 41f
4:42 10 15 mph 1023.4mb 39f 41f
4:36 13 22 mph 1023.2mb 39f 41f
4:30 10 18 mph 1023.2mb 39f 41f
4:24 14 21 mph 1023.1mb 39f 41f
4:18 14 18 mph 1023mb 39f 41f
4:12 14 18 mph 1022.9mb 39f 41f
4:06 16 20 mph 1022.8mb 39f 42f
4:00 13 22 mph 1022.7mb 39f 42f
3:54 14 21 mph 1022.7mb 39f 42f
3:48 20 23 mph 1022.7mb 39f 42f
3:42 16 21 mph 1022.6mb 39f 42f
3:36 17 23 mph 1022.5mb 39f 42f
3:30 14 18 mph 1022.4mb 39f 42f
3:24 17 22 mph 1022.3mb 39f 42f
3:18 18 23 mph 1022.2mb 39f 42f
3:12 13 18 mph 1022.1mb 39f 42f
3:06 16 20 mph 1022mb 39f 42f
3:00 15 18 mph 1021.9mb 39f 42f
2:54 15 18 mph 1021.9mb 39f 42f
2:48 14 18 mph 1021.8mb 39f 42f
2:42 14 22 mph 1021.7mb 39f 41f
2:36 15 21 mph 1021.5mb 39f 41f
2:30 14 18 mph 1021.6mb 39f 41f
2:24 14 20 mph 1021.5mb 39f 41f
2:18 16 20 mph 1021.3mb 39f 41f
2:12 14 18 mph 1021.2mb 39f 42f
2:06 14 18 mph 1021mb 39f 41f
2:00 14 17 mph 1020.9mb 39f 41f
1:54 16 20 mph 1020.8mb 39f 41f
1:48 13 21 mph 1020.8mb 39f 41f
1:42 15 21 mph 1020.6mb 39f 41f
1:36 16 18 mph 1020.6mb 39f 41f
1:30 15 22 mph 1020.6mb 39f 40f
1:24 6 16 mph 1020.6mb 38f 41f
1:18 15 21 mph 1020.6mb 38f 40f
1:12 11 17 mph 1020.6mb 38f 41f
1:06 15 22 mph 1020.6mb 38f 40f
1:00 13 17 mph 1020.7mb 38f 40f
12:54 10 18 mph 1020.8mb 38f 41f
12:48 11 15 mph 1020.8mb 38f 40f
12:42 9 18 mph 1020.9mb 38f 40f
12:36 11 21 mph 1020.8mb 38f 40f
12:30 15 20 mph 1020.9mb 38f 40f
12:24 10 16 mph 1020.8mb 38f 40f
12:18 15 22 mph 1020.8mb 38f 39f
12:12 15 20 mph 1020.8mb 38f 39f
12:06 13 20 mph 1020.9mb 38f 40f
12:00 14 17 mph 1020.9mb 38f 39f
11:54 7 13 mph 1021mb 38f 39f
11:48 9 14 mph 1021.1mb 38f 38f
11:42 8 16 mph 1021.1mb 38f 38f
11:36 9 16 mph 1021.2mb 38f 38f
11:30 11 18 mph 1021.2mb 38f 38f
11:24 9 13 mph 1021.2mb 38f 38f
11:18 10 11 mph 1021.3mb 38f 38f
11:12 8 16 mph 1021.2mb 38f 38f
11:06 13 16 mph 1021.1mb 38f 38f
11:00 16 20 mph 1021.1mb 38f 38f
10:54 10 14 mph 1021.2mb 38f 37f
10:48 9 13 mph 1021.2mb 38f 37f
10:42 11 15 mph 1021.2mb 38f 37f
10:36 11 15 mph 1021.4mb 38f 37f
10:30 9 14 mph 1021.3mb 38f 37f
10:24 11 15 mph 1021.3mb 38f 37f
10:18 10 16 mph 1021.1mb 38f 37f
10:12 14 17 mph 1021.1mb 38f 37f
10:06 13 16 mph 1021.2mb 38f 37f
10:00 11 17 mph 1021.2mb 38f 37f
9:54 11 15 mph 1021.1mb 38f 37f
9:48 14 17 mph 1021.1mb 38f 36f
9:42 15 20 mph 1021mb 38f 36f
9:36 14 16 mph 1021mb 38f 36f
9:30 13 18 mph 1021mb 38f 36f
9:24 14 17 mph 1020.9mb 38f 36f
9:18 13 17 mph 1020.9mb 38f 36f
9:12 14 17 mph 1021mb 38f 36f
9:06 14 20 mph 1020.9mb 38f 36f
9:00 16 20 mph 1020.7mb 38f 36f
8:54 13 17 mph 1020.7mb 38f 36f
8:48 14 21 mph 1020.6mb 38f 36f
8:42 15 20 mph 1020.6mb 38f 36f
8:36 15 20 mph 1020.5mb 38f 36f
8:30 11 20 mph 1020.4mb 38f 36f
8:24 16 20 mph 1020.3mb 38f 36f
8:18 14 20 mph 1020.1mb 38f 36f
8:12 13 17 mph 1020.1mb 38f 36f
8:06 14 17 mph 1019.9mb 38f 36f
8:00 11 14 mph 1019.8mb 38f 36f
7:54 10 15 mph 1019.7mb 38f 36f
7:48 11 15 mph 1019.6mb 38f 35f
7:42 10 14 mph 1019.5mb 38f 35f
7:36 10 13 mph 1019.4mb 38f 35f
7:30 9 11 mph 1019.3mb 38f 35f
7:24 7 9 mph 1019.2mb 38f 35f
7:18 6 7 mph 1019.1mb 38f 34f
7:12 6 7 mph 1019mb 38f 34f
7:06 6 7 mph 1018.8mb 38f 33f
7:00 6 7 mph 1018.7mb 38f 33f
6:54 7 8 mph 1018.5mb 38f 33f
6:48 7 9 mph 1018.4mb 38f 33f
6:42 7 9 mph 1018.3mb 38f 33f
6:36 7 8 mph 1018.2mb 38f 34f
6:30 6 7 mph 1018mb 38f 34f
6:24 5 6 mph 1017.8mb 38f 34f
6:18 2 3 mph 1017.7mb 38f 33f
6:12 3 5 mph 1017.5mb 38f 34f
6:06 5 6 mph 1017.4mb 38f 34f
6:00 6 7 mph 1017.2mb 38f 33f
5:54 8 9 mph 1017mb 38f 34f
5:48 9
mph
1016.8mb 38f 35f
5:42 7
mph
1016.8mb 38f 35f
5:36 6
mph
1016.8mb 38f 35f
5:30 3 5 mph 1016.7mb 38f 35f
5:24 3 6 mph 1016.5mb 38f 35f
5:18 6 8 mph 1016.3mb 38f 35f
5:12 7 9 mph 1016.2mb 38f 36f
5:06 7 8 mph 1016.1mb 38f 36f
5:00 7 8 mph 1016mb 38f 36f
4:54 7 9 mph 1015.9mb 38f 36f
4:48 9 11 mph 1015.8mb 38f 37f
4:42 10 11 mph 1015.6mb 38f 37f
4:36 10 14 mph 1015.5mb 38f 36f
4:30 8 9 mph 1015.5mb 38f 37f
4:24 7 10 mph 1015.5mb 38f 37f
4:18 7 10 mph 1015.4mb 38f 37f
4:12 8 10 mph 1015.3mb 38f 38f
4:06 8 9 mph 1015.2mb 38f 37f
4:00 6 8 mph 1015mb 38f 38f
3:54 7 9 mph 1015mb 38f 38f
3:48 6 8 mph 1014.9mb 38f 38f
3:42 6 7 mph 1014.8mb 38f 39f
3:36 7 8 mph 1014.6mb 38f 39f
3:30 7 8 mph 1014.5mb 38f 39f
3:24 5 6 mph 1014.4mb 38f 39f
3:18 6 7 mph 1014.2mb 38f 39f
3:12 6 9 mph 1014.2mb 38f 39f
3:06 6 7 mph 1014.1mb 38f 39f
3:00 5 6 mph 1014mb 38f 39f
2:54 6 7 mph 1013.9mb 38f 40f
2:48 6 7 mph 1013.8mb 38f 40f
2:42 5 6 mph 1013.8mb 38f 40f
2:36 3 5 mph 1013.9mb 39f 40f
2:30 3 5 mph 1013.8mb 39f 40f
2:24 3 6 mph 1013.7mb 39f 40f
2:18 6 8 mph 1013.6mb 39f 40f
2:12 6 7 mph 1013.5mb 39f 41f
2:06 5 6 mph 1013.4mb 39f 41f
2:00 5 6 mph 1013.4mb 39f 41f
1:54 6 8 mph 1013.3mb 39f 41f
1:48 6 7 mph 1013.4mb 39f 41f
1:42 6 8 mph 1013.3mb 39f 42f
1:36 7 8 mph 1013.2mb 39f 42f
1:30 7 9 mph 1013.2mb 39f 42f
1:24 9 10 mph 1013.2mb 39f 43f
1:18 7 9 mph 1013mb 39f 42f
1:12 8 11 mph 1012.9mb 39f 42f
1:06 10 14 mph 1012.8mb 39f 43f
1:00 10 13 mph 1012.7mb 39f 43f
12:54 7 9 mph 1012.7mb 39f 43f
12:48 8 11 mph 1012.6mb 39f 43f
12:42 9 11 mph 1012.6mb 39f 44f
12:36 8 10 mph 1012.5mb 39f 44f
12:30 9 18 mph 1012.4mb 39f 44f
12:24 13 20 mph 1012.3mb 39f 45f
12:18 13 16 mph 1012.2mb 39f 46f
12:12 8 13 mph 1012.1mb 39f 46f
12:06 7 13 mph 1012mb 39f 46f
12:00 7 10 mph 1012mb 39f 46f
Dom 02/19 11:54 8 11 mph 1011.8mb 39f 47f
11:48 6 9 mph 1011.8mb 39f 46f
11:42 6 10 mph 1011.7mb 39f 46f
11:36 8 14 mph 1011.7mb 39f 47f
11:30 6 10 mph 1011.6mb 39f 46f
11:24 7 10 mph 1011.6mb 39f 46f
11:18 6 9 mph 1011.5mb 39f 46f
11:12 6 9 mph 1011.4mb 39f 46f
11:06 6 8 mph 1011.4mb 39f 46f
11:00 6 8 mph 1011.4mb 39f 46f
10:54 5 8 mph 1011.3mb 39f 46f
10:48 6 9 mph 1011.4mb 39f 46f
10:42 6 8 mph 1011.5mb 39f 46f
10:36 6 8 mph 1011.4mb 39f 46f
10:30 6 9 mph 1011.4mb 39f 47f
10:24 7 11 mph 1011.4mb 39f 47f
10:18 6 9 mph 1011.3mb 39f 46f
10:12 8 10 mph 1011.2mb 39f 47f
10:06 7 11 mph 1011.1mb 39f 47f
10:00 6 10 mph 1011.2mb 39f 47f
9:54 6 9 mph 1011.2mb 39f 47f
9:48 6 10 mph 1011.2mb 38f 47f
9:42 7 10 mph 1011.1mb 38f 47f
9:36 6 10 mph 1011mb 38f 47f
9:30 7 11 mph 1010.9mb 38f 47f
9:24 6 8 mph 1011mb 38f 47f
9:18 6 7 mph 1011mb 38f 47f
9:12 5 8 mph 1010.9mb 38f 47f
9:06 5 7 mph 1010.8mb 39f 47f
9:00 6 8 mph 1010.6mb 39f 47f
8:54 6 8 mph 1010.6mb 39f 47f
8:48 6 8 mph 1010.5mb 39f 47f
8:42 6 8 mph 1010.4mb 39f 47f
8:36 7 10 mph 1010.4mb 39f 47f
8:30 7 10 mph 1010.2mb 39f 48f
8:24 6 10 mph 1010.1mb 39f 48f
8:18 7 11 mph 1010.1mb 39f 47f
8:12 6 8 mph 1010mb 39f 47f
8:06 5 9 mph 1009.9mb 39f 48f
8:00 5 7 mph 1009.9mb 39f 49f
7:54 5 6 mph 1009.9mb 39f 49f
7:48 3 6 mph 1009.8mb 39f 49f
7:42 5 7 mph 1009.6mb 39f 49f
7:36 5 7 mph 1009.5mb 39f 49f
7:30 3 6 mph 1009.5mb 39f 49f
7:24 5 6 mph 1009.4mb 39f 49f
7:18 3 7 mph 1009.4mb 39f 49f
7:12 5 7 mph 1009.2mb 39f 49f
7:06 5 6 mph 1009.2mb 39f 49f
7:00 3 5 mph 1009.1mb 39f 49f
6:54 5 6 mph 1009mb 39f 50f
6:48 5 9 mph 1009mb 39f 50f
6:42 5 8 mph 1008.9mb 39f 50f
6:36 7 10 mph 1008.8mb 39f 50f
6:30 7 11 mph 1008.7mb 39f 50f
6:24 8 11 mph 1008.6mb 39f 50f
6:18 9 10 mph 1008.6mb 39f 50f
6:12 9 13 mph 1008.5mb 39f 50f
6:06 8 11 mph 1008.4mb 39f 51f
6:00 10 15 mph 1008.2mb 39f 51f
5:54 10 14 mph 1008.1mb 39f 51f
5:48 9 14 mph 1008mb 39f 51f
5:42 10 15 mph 1007.9mb 39f 51f
5:36 10 15 mph 1007.8mb 39f 51f
5:30 9 20 mph 1007.7mb 39f 51f
5:24 13 20 mph 1007.5mb 39f 52f
5:18 11 22 mph 1007.5mb 39f 52f
5:12 10 17 mph 1007.4mb 39f 52f
5:06 9 17 mph 1007.4mb 39f 52f
5:00 13 18 mph 1007.2mb 39f 53f
4:54 14 17 mph 1007.1mb 39f 53f
4:48 14 20 mph 1007mb 39f 53f
4:42 11 22 mph 1006.8mb 39f 53f
4:36 15 21 mph 1006.5mb 39f 54f
4:30 10 16 mph 1006.4mb 39f 53f
4:24 13 18 mph 1006.2mb 39f 54f
4:18 10 16 mph 1006.2mb 39f 54f
4:12 10 23 mph 1006.1mb 39f 54f
4:06 13 23 mph 1006mb 39f 55f
4:00 14 24 mph 1006mb 39f 55f
3:54 15 21 mph 1005.8mb 39f 55f
3:48 23 29 mph 1005.5mb 39f 56f
3:42 17 25 mph 1005.1mb 39f 56f
3:36 15 28 mph 1004.9mb 39f 56f
3:30 18 25 mph 1004.9mb 39f 56f
3:24 17 29 mph 1005mb 39f 57f
3:18 21 30 mph 1004.8mb 39f 57f
3:12 21 29 mph 1004.5mb 39f 57f
3:06 18 25 mph 1004.5mb 39f 57f
3:00 21 29 mph 1004.2mb 39f 57f
2:54 16 28 mph 1004.2mb 39f 58f
2:48 18 26 mph 1004mb 39f 58f
2:42 15 22 mph 1003.9mb 39f 58f
2:36 16 28 mph 1003.8mb 39f 58f
2:30 13 28 mph 1003.7mb 39f 57f
2:24 14 17 mph 1003.6mb 38f 58f
2:18 13 18 mph 1003.5mb 38f 58f
2:12 9 15 mph 1003.3mb 38f 58f
2:06 13 18 mph 1003.3mb 38f 58f
2:00 14 25 mph 1003.2mb 38f 58f
1:54 13 18 mph 1003.2mb 38f 58f
1:48 6 8 mph 1003.2mb 38f 57f
1:42 5 9 mph 1003.1mb 37f 56f
1:36 5 9 mph 1003.1mb 37f 55f
1:30 6 11 mph 1003.2mb 37f 55f
1:24 8 14 mph 1003.1mb 37f 54f
1:18 8 11 mph 1003.1mb 37f 54f
1:12 7 11 mph 1003.1mb 37f 54f
1:06 9 17 mph 1003mb 37f 54f
1:00 11 18 mph 1003mb 37f 54f
12:54 7 13 mph 1003mb 37f 54f
12:48 7 11 mph 1003mb 37f 53f
12:42 7 13 mph 1003.1mb 37f 53f
12:36 7 14 mph 1003.1mb 37f 52f
12:30 6 11 mph 1003.1mb 38f 52f
12:24 9 15 mph 1003.1mb 38f 51f
12:18 10 16 mph 1003.1mb 38f 51f
12:12 10 17 mph 1003.1mb 38f 51f
12:06 8 16 mph 1003.1mb 38f 51f
12:00 10 15 mph 1003.3mb 38f 51f
11:54 9 16 mph 1003.3mb 38f 51f
11:48 9 14 mph 1003.4mb 38f 51f
11:42 7 11 mph 1003.3mb 38f 51f
11:36 8 13 mph 1003.3mb 38f 51f
11:30 7 13 mph 1003.4mb 38f 51f
11:24 7 14 mph 1003.5mb 38f 51f
11:18 8 13 mph 1003.6mb 38f 51f
11:12 8 15 mph 1003.6mb 38f 51f
11:06 7 13 mph 1003.6mb 38f 51f
11:00 9 14 mph 1003.7mb 38f 51f
10:54 8 13 mph 1003.8mb 38f 50f
10:48 8 15 mph 1003.8mb 38f 50f
10:42 7 13 mph 1003.9mb 38f 50f
10:36 10 15 mph 1004mb 38f 50f
10:30 10 15 mph 1004mb 38f 49f
10:24 9 13 mph 1003.9mb 38f 49f
10:18 9 11 mph 1004mb 38f 49f
10:12 6 10 mph 1004.1mb 38f 48f
10:06 6 9 mph 1004.1mb 38f 48f
10:00 6 13 mph 1004.2mb 38f 48f
9:54 8 14 mph 1004.2mb 38f 47f
9:48 8 14 mph 1004.2mb 38f 47f
9:42 8 14 mph 1004.2mb 38f 47f
9:36 8 14 mph 1004.2mb 38f 46f
9:30 8 13 mph 1004.1mb 38f 46f
9:24 7 14 mph 1004.1mb 38f 46f
9:18 8 13 mph 1004mb 38f 46f
9:12 7 11 mph 1004mb 38f 46f
9:06 7 13 mph 1004mb 38f 46f
9:00 7 13 mph 1004mb 38f 46f
8:54 8 14 mph 1004mb 38f 46f
8:48 10 13 mph 1003.9mb 38f 46f
8:42 9 11 mph 1003.8mb 38f 46f
8:36 8 13 mph 1003.7mb 38f 46f
8:30 8 11 mph 1003.7mb 38f 45f
8:24 7 10 mph 1003.7mb 38f 45f
8:18 8 13 mph 1003.7mb 38f 45f
8:12 8 13 mph 1003.6mb 38f 44f
8:06 7 13 mph 1003.5mb 38f 44f
8:00 9 13 mph 1003.5mb 38f 44f
7:54 9 15 mph 1003.4mb 38f 44f
7:48 9 14 mph 1003.3mb 38f 44f
7:42 10 14 mph 1003.2mb 38f 44f
7:36 9 15 mph 1003.1mb 38f 43f
7:30 9 13 mph 1003mb 38f 43f
7:24 8 13 mph 1003mb 38f 43f
7:18 7 10 mph 1003mb 38f 43f
7:12 6 11 mph 1002.9mb 38f 43f
7:06 7 11 mph 1002.8mb 38f 43f
7:00 7 11 mph 1002.7mb 38f 43f
6:54 6 11 mph 1002.6mb 38f 43f
6:48 6 11 mph 1002.5mb 38f 43f
6:42 6 9 mph 1002.5mb 38f 43f
6:36 7 11 mph 1002.5mb 38f 43f
6:30 7 11 mph 1002.4mb 38f 43f
6:24 7 10 mph 1002.3mb 38f 43f
6:18 6 10 mph 1002.2mb 38f 43f
6:12 8 11 mph 1002.1mb 38f 43f
6:06 8 13 mph 1002.1mb 38f 43f
6:00 7 11 mph 1002mb 38f 43f
5:54 9 13 mph 1001.9mb 38f 43f
5:48 8 11 mph 1001.9mb 38f 43f
5:42 8 13 mph 1001.9mb 38f 43f
5:36 8 10 mph 1001.8mb 38f 43f
5:30 7 10 mph 1001.7mb 38f 43f
5:24 7 10 mph 1001.6mb 38f 43f
5:18 8 10 mph 1001.6mb 38f 43f
5:12 6 9 mph 1001.6mb 38f 43f
5:06 6 9 mph 1001.5mb 38f 43f
5:00 7 9 mph 1001.4mb 38f 42f
4:54 6 9 mph 1001.3mb 38f 42f
4:48 7 9 mph 1001.2mb 38f 43f
4:42 6 10 mph 1001.1mb 38f 42f
4:36 6 9 mph 1001mb 38f 42f
4:30 7 9 mph 1000.9mb 38f 42f
4:24 6 9 mph 1000.8mb 38f 42f
4:18 6 8 mph 1000.8mb 38f 42f
4:12 5 7 mph 1000.8mb 38f 42f
4:06 2 5 mph 1000.7mb 38f 40f
4:00 3 5 mph 1000.6mb 38f 40f
3:54 3 6 mph 1000.5mb 38f 42f
3:48 3 6 mph 1000.5mb 38f 42f
3:42 3 5 mph 1000.4mb 38f 42f
3:36 3 6 mph 1000.3mb 38f 42f
3:30 3 6 mph 1000.2mb 38f 41f
3:24 5 7 mph 1000.1mb 38f 41f
3:18 6 8 mph 1000mb 38f 41f
3:12 6 8 mph 1000mb 38f 41f
3:06 6 8 mph 999.9mb 38f 41f
3:00 5 7 mph 999.9mb 38f 41f
2:54 6 7 mph 999.8mb 38f 41f
2:48 6
mph
999.9mb 38f 41f
2:42 5
mph
999.8mb 38f 40f
2:36 2
mph
999.7mb 38f 36f
2:30  -  2 mph 999.7mb 38f 34f
2:24 1 3 mph 999.6mb 38f 32f
2:18 1 2 mph 999.5mb 38f 33f
2:12 2 3 mph 999.4mb 38f 35f
2:06 3
mph
999.4mb 38f 35f
2:00 2 3 mph 999.4mb 38f 34f
1:54 3 5 mph 999.3mb 38f 33f
1:48 5 6 mph 999.3mb 38f 33f
1:42 3
mph
999.3mb 38f 33f
1:36 2
mph
999.3mb 38f 34f
1:30 2 3 mph 999.2mb 38f 35f
1:24 2
mph
999.1mb 38f 34f
1:18  -  1 mph 999.1mb 38f 34f
1:12 1 3 mph 999.1mb 38f 32f
1:06 5
mph
999.1mb 38f 31f
1:00 5
mph
999mb 38f 31f
12:54 2
mph
998.9mb 38f 33f
12:48  -  1 mph 998.8mb 38f 34f
12:42  -  1 mph 998.8mb 38f 34f
12:36  -  2 mph 998.7mb 38f 34f
12:30 2 3 mph 998.6mb 38f 34f
12:24 2 3 mph 998.6mb 38f 35f
12:18 3
mph
998.5mb 38f 36f
12:12 2 3 mph 998.5mb 38f 35f
12:06 2 3 mph 998.4mb 38f 33f
12:00 1 2 mph 998.3mb 38f 32f
Sáb 02/18 11:54 2
mph
998.3mb 38f 35f
11:48 2
mph
998.2mb 38f 33f
11:42  -  1 mph 998.1mb 38f 32f
11:36  -  2 mph 998.1mb 38f 32f
11:30 3
mph
998mb 38f 33f
11:24 1 2 mph 997.9mb 38f 33f
11:18 2 3 mph 997.9mb 38f 34f
11:12 5
mph
997.8mb 38f 35f
11:06 2 3 mph 997.8mb 38f 35f
11:00 2
mph
997.7mb 38f 33f
10:54  -  1 mph 997.7mb 38f 34f
10:48  -  2 mph 997.7mb 38f 34f
10:42 2
mph
997.7mb 38f 35f
10:36  -  1 mph 997.7mb 38f 37f
10:30  -  1 mph 997.7mb 38f 37f
10:24  -  1 mph 997.7mb 38f 37f
10:18  -  3 mph 997.7mb 38f 37f
10:12 2 3 mph 997.8mb 38f 38f
10:06 2 3 mph 997.8mb 38f 37f
10:00 2 3 mph 997.9mb 38f 35f
9:54 1 3 mph 997.9mb 38f 37f
9:48 1 3 mph 997.9mb 38f 36f
9:42 2 3 mph 997.9mb 38f 37f
9:36 2 3 mph 997.9mb 38f 39f
9:30 1 2 mph 997.9mb 38f 39f
9:24 2
mph
997.9mb 38f 38f
9:18 1 2 mph 997.8mb 38f 38f
9:12 1 3 mph 997.7mb 38f 40f
9:06 3 5 mph 997.5mb 38f 40f
9:00 3 5 mph 997.5mb 38f 40f
8:54 5 6 mph 997.5mb 38f 40f
8:48 5 6 mph 997.6mb 38f 40f
8:42 6 7 mph 997.6mb 38f 40f
8:36 6
mph
997.7mb 38f 40f
8:30 5 6 mph 997.7mb 38f 40f
8:24 3 5 mph 997.8mb 38f 40f
8:18 5 6 mph 997.8mb 38f 40f
8:12 5 6 mph 997.8mb 38f 40f
8:06 5 6 mph 997.8mb 38f 40f
8:00 3 5 mph 997.8mb 38f 40f
7:54 3 5 mph 997.7mb 38f 40f
7:48 5 6 mph 997.7mb 38f 39f
7:42 5 7 mph 997.7mb 38f 39f
7:36 6 8 mph 997.7mb 38f 39f
7:30 7 8 mph 997.7mb 38f 39f
7:24 8 11 mph 997.7mb 38f 40f
7:18 13 14 mph 997.6mb 38f 40f
7:12 11 13 mph 997.6mb 38f 40f
7:06 8 10 mph 997.7mb 38f 40f
7:00 8 9 mph 997.6mb 38f 38f
6:54 6 9 mph 997.8mb 38f 39f
6:48 3 6 mph 997.9mb 38f 38f
6:42 6 8 mph 998mb 38f 38f
6:36 8 9 mph 998mb 38f 38f
6:30 9 10 mph 998.1mb 38f 38f
6:24 10 11 mph 998.3mb 38f 38f
6:18 10 11 mph 998.4mb 38f 39f
6:12 7 9 mph 998.3mb 38f 38f
6:06 6 8 mph 998.3mb 38f 37f
6:00 8
mph
998.5mb 38f 38f
5:54 7
mph
998.7mb 38f 39f
5:48 5 6 mph 998.7mb 38f 38f
5:42 6 8 mph 998.7mb 38f 38f
5:36 8
mph
998.8mb 38f 40f
5:30 6 9 mph 999mb 38f 40f
5:24 7 9 mph 998.9mb 38f 40f
5:18 7 8 mph 998.9mb 38f 39f
5:12 7 8 mph 999mb 38f 39f
5:06 3
mph
999.1mb 38f 40f
5:00 3 7 mph 999.1mb 38f 40f
4:54 6 7 mph 999mb 38f 40f
4:48 6 8 mph 999.1mb 38f 40f
4:42 7 10 mph 999.1mb 38f 40f
4:36 9 11 mph 999.2mb 38f 41f
4:30 10 13 mph 999.1mb 38f 41f
4:24 10 13 mph 999.3mb 38f 41f
4:18 10 13 mph 999.3mb 38f 41f
4:12 11 13 mph 999.5mb 38f 42f
4:06 10 13 mph 999.7mb 38f 42f
4:00 11 13 mph 999.8mb 38f 42f
3:54 9 10 mph 999.9mb 38f 42f
3:48 10 13 mph 1000.1mb 38f 42f
3:42 11 14 mph 1000.1mb 38f 42f
3:36 11 14 mph 1000.1mb 38f 43f
3:30 11 14 mph 1000.1mb 38f 42f
3:24 13 14 mph 1000mb 38f 42f
3:18 13 15 mph 1000.3mb 38f 42f
3:12 13 15 mph 1000.5mb 38f 42f
3:06 14 16 mph 1000.4mb 38f 42f
3:00 14 15 mph 1000.7mb 38f 41f
2:54 13 16 mph 1001mb 38f 41f
2:48 14 17 mph 1000.9mb 38f 41f
2:42 14 17 mph 1000.9mb 38f 41f
2:36 14 17 mph 1001mb 38f 41f
2:30 15 18 mph 1001.2mb 38f 41f
2:24 15 18 mph 1001.5mb 38f 41f
2:18 16 22 mph 1001.7mb 38f 40f
2:12 17 22 mph 1001.8mb 38f 40f
2:06 16 21 mph 1002mb 38f 40f
2:00 17 20 mph 1002.1mb 38f 40f
1:54 16 20 mph 1002.3mb 38f 40f
1:48 16 20 mph 1002.5mb 38f 40f
1:42 15 20 mph 1002.6mb 38f 40f
1:36 14 18 mph 1002.5mb 38f 40f
1:30 15 20 mph 1002.6mb 38f 40f
1:24 16 18 mph 1002.7mb 38f 40f
1:18 17 20 mph 1002.8mb 38f 40f
1:12 17 21 mph 1002.6mb 37f 40f
1:06 15 18 mph 1002.7mb 36f 39f
1:00 15 18 mph 1002.6mb 36f 40f
12:54 16 20 mph 1002.7mb 36f 40f
12:48 13 17 mph 1002.6mb 36f 40f
12:42 14 17 mph 1002.8mb 35f 39f
12:36 14 17 mph 1003.1mb 36f 39f
12:30 16 18 mph 1003.5mb 36f 39f
12:24 16 18 mph 1003.5mb 36f 39f
12:18 15 18 mph 1003.7mb 36f 38f
12:12 15 17 mph 1003.8mb 36f 38f
12:06 15 18 mph 1003.9mb 36f 38f
12:00 17 20 mph 1004mb 36f 37f
11:54 17 22 mph 1004.4mb 36f 37f
11:48 18 22 mph 1004.6mb 36f 37f
11:42 18 22 mph 1004.7mb 36f 37f
11:36 18 22 mph 1005.1mb 36f 37f
11:30 18 21 mph 1005.1mb 36f 37f
11:24 16 18 mph 1005.2mb 36f 37f
11:18 16 17 mph 1005.3mb 36f 37f
11:12 13 14 mph 1005.4mb 36f 38f
11:06 10 13 mph 1005.6mb 37f 38f
11:00 10 13 mph 1005.7mb 37f 38f
10:54 7 9 mph 1005.8mb 37f 38f
10:48 6 9 mph 1005.8mb 37f 39f
10:42 8
mph
1005.8mb 37f 39f
10:36 6 7 mph 1006mb 37f 39f
10:30 6 8 mph 1006.1mb 37f 38f
10:24 7 11 mph 1006mb 37f 38f
10:18 7 9 mph 1006.2mb 37f 38f
10:12 8 13 mph 1006.3mb 37f 37f
10:06 9 11 mph 1006.5mb 37f 37f
10:00 8 14 mph 1006.8mb 37f 36f
9:54 7 11 mph 1006.9mb 37f 37f
9:48 5 13 mph 1007.3mb 37f 37f
9:42 8 14 mph 1007.6mb 37f 36f
9:36 9 14 mph 1007.9mb 37f 35f
9:30 9 15 mph 1008.1mb 37f 35f
9:24 6 10 mph 1008.2mb 37f 34f
9:18 8 11 mph 1008.2mb 37f 34f
9:12 7 10 mph 1008.4mb 37f 34f
9:06 6 8 mph 1008.3mb 37f 34f
9:00 5 9 mph 1008.2mb 37f 33f
8:54 6 9 mph 1008.4mb 37f 32f
8:48 7 11 mph 1008.3mb 37f 32f
8:42 2 7 mph 1008.3mb 37f 32f
8:36 5 6 mph 1008.4mb 37f 31f
8:30 3 6 mph 1008.2mb 37f 31f
8:24 3 6 mph 1008mb 37f 31f
8:18 2 6 mph 1008.1mb 37f 31f
8:12 5 7 mph 1008.4mb 37f 31f
8:06 3 6 mph 1008.2mb 37f 31f
8:00 1 7 mph 1008.3mb 37f 31f
7:54 3 5 mph 1008.4mb 37f 31f
7:48 2 3 mph 1008.4mb 37f 31f
7:42 2 3 mph 1008.4mb 37f 31f
7:36 1 6 mph 1008.5mb 38f 30f
7:30 5 6 mph 1008.6mb 38f 30f
7:24 2 3 mph 1008.3mb 38f 30f
7:18 2 3 mph 1008.5mb 37f 30f
7:12 1
mph
1008.1mb 38f 31f
7:06 2 3 mph 1007.9mb 38f 30f
7:00 2 5 mph 1007.9mb 38f 30f
6:54 2 5 mph 1007.9mb 38f 30f
6:48 2 3 mph 1007.8mb 38f 30f
6:42 2 3 mph 1007.8mb 38f 30f
6:36 2 5 mph 1007.7mb 38f 30f
6:30 2 5 mph 1008mb 38f 30f
6:24 5
mph
1007.9mb 38f 30f
6:18 2 6 mph 1007.9mb 38f 30f
6:12 2 6 mph 1007.9mb 38f 30f
6:06 3 5 mph 1008.1mb 38f 30f
6:00 2 6 mph 1008mb 38f 30f
5:54 1 3 mph 1008mb 38f 30f
5:48  -  3 mph 1008mb 38f 30f
5:42 2 7 mph 1008mb 38f 30f
5:36  -  2 mph 1007.9mb 38f 30f
5:30 1 2 mph 1008.1mb 38f 30f
5:24 1 2 mph 1008.3mb 38f 29f
5:18  -  6 mph 1008.3mb 38f 29f
5:12 2 10 mph 1008.3mb 38f 29f
5:06 5 9 mph 1008.3mb 38f 30f
5:00 6 10 mph 1008.3mb 38f 30f
4:54 5 11 mph 1008.3mb 38f 29f
4:48 6 10 mph 1008.3mb 38f 29f
4:42 7 11 mph 1008.3mb 38f 29f
4:36 6 10 mph 1008.6mb 38f 29f
4:30 7 10 mph 1008.7mb 38f 29f
4:24 7 11 mph 1008.4mb 38f 29f
4:18 5 8 mph 1008.6mb 38f 29f
4:12 6 8 mph 1008.5mb 38f 28f
4:06 6 10 mph 1008.4mb 38f 28f
4:00 6 9 mph 1008.5mb 38f 29f
3:54 6 9 mph 1008.7mb 38f 28f
3:48 7 14 mph 1008.8mb 38f 29f
3:42 6 10 mph 1008.8mb 38f 28f
3:36 5 8 mph 1008.8mb 38f 28f
3:30 3 6 mph 1008.7mb 38f 28f
3:24 3 7 mph 1008.5mb 38f 28f
3:18 3 7 mph 1008.5mb 38f 28f
3:12 5 9 mph 1008.5mb 38f 28f
3:06 6 10 mph 1008.5mb 38f 28f
3:00 6 11 mph 1008.6mb 38f 28f
2:54 7 10 mph 1008.7mb 38f 28f
2:48 8 10 mph 1008.7mb 38f 28f
2:42 7 9 mph 1008.6mb 38f 28f
2:36 6 10 mph 1008.6mb 38f 28f
2:30 7 10 mph 1008.7mb 38f 28f
2:24 3 7 mph 1008.6mb 38f 28f
2:18 5 8 mph 1008.8mb 38f 28f
2:12 5 8 mph 1008.6mb 38f 28f
2:06 5 6 mph 1008.5mb 38f 28f
2:00 5 7 mph 1008.5mb 38f 28f
1:54 5 7 mph 1008.6mb 38f 28f
1:48 6 10 mph 1008.7mb 38f -
1:42 6 10 mph 1008.7mb 38f -
1:36 7 10 mph 1008.7mb 38f -
1:30 6 10 mph 1008.7mb 38f 27f
1:24 6 8 mph 1008.7mb 38f 27f
1:18 2 3 mph 1008.6mb 38f 26f
1:12 1 2 mph 1008.5mb 38f 26f
1:06 1 3 mph 1008.4mb 38f 26f
1:00 1 2 mph 1008.3mb 37f 26f
12:54  -  3 mph 1008.3mb 37f 26f
12:48 2 3 mph 1008.1mb 37f 25f
12:42 2 5 mph 1008.1mb 37f 25f
12:36 3 6 mph 1008.1mb 37f 24f
12:30 3 7 mph 1008mb 37f 25f
12:24 6 8 mph 1008.1mb 37f 25f
12:18 2 5 mph 1008mb 37f 22f
12:12 2 3 mph 1008mb 37f 23f
12:06 2 3 mph 1008mb 37f 22f
12:00 2 3 mph 1008mb 37f 22f
Sex 02/17 11:54 3
mph
1007.9mb 37f 24f
11:48 3
mph
1007.9mb 37f 21f
11:42 2
mph
1007.8mb 37f 21f
11:36  -  1 mph 1007.7mb 37f 21f
11:30 1 2 mph 1007.6mb 37f 21f
11:24 1 3 mph 1007.5mb 37f 24f
11:18 2 3 mph 1007.4mb 37f 24f
11:12 3 5 mph 1007.3mb 37f 24f
11:06 2 3 mph 1007.3mb 37f 23f
11:00 1 2 mph 1007.3mb 37f 24f
10:54  -  3 mph 1007.2mb 37f 26f
10:48 2 3 mph 1007.2mb 37f 28f
10:42 3
mph
1007.3mb 37f 27f
10:36 2 3 mph 1007.3mb 37f 25f
10:30 2 3 mph 1007.3mb 37f 24f
10:24 3
mph
1007.2mb 37f 23f
10:18 3 5 mph 1007.3mb 37f 23f
10:12 3
mph
1007.1mb 37f 24f
10:06 2
mph
1007.1mb 37f 25f
10:00 1 2 mph 1007.2mb 37f 25f
9:54 1 2 mph 1007.1mb 37f 26f
9:48 1 2 mph 1007.1mb 37f 26f
9:42  -  1 mph 1007mb 37f 29f
9:36 1 2 mph 1007mb 37f 29f
9:30  -  1 mph 1007mb 37f 28f
9:24  -  2 mph 1007mb 37f 29f
9:18  -  1 mph 1007.1mb 37f 29f
9:12  -  2 mph 1007mb 37f 29f
9:06 1 3 mph 1006.9mb 37f 30f
9:00 2
mph
1006.8mb 37f 30f
8:54 1 3 mph 1006.9mb 37f 30f
8:48 2 6 mph 1006.7mb 37f 30f
8:42 5 7 mph 1006.6mb 37f 30f
8:36 6 9 mph 1006.5mb 37f 31f
8:30 7 10 mph 1006.3mb 37f 31f
8:24 7 10 mph 1006.2mb 37f 31f
8:18 6 9 mph 1006.3mb 37f 31f
8:12 7 10 mph 1006.3mb 37f 31f
8:06 8 11 mph 1006.2mb 37f 31f
8:00 8 13 mph 1006.1mb 37f 31f
7:54 8 11 mph 1006.1mb 37f 31f
7:48 8 11 mph 1006mb 37f 31f
7:42 7 11 mph 1006mb 37f 31f
7:36 7 13 mph 1006.1mb 37f 32f
7:30 7 10 mph 1006.1mb 38f 32f
7:24 6 9 mph 1006mb 38f 32f
7:18 7 11 mph 1005.8mb 38f 32f
7:12 7 14 mph 1005.7mb 38f 32f
7:06 6 10 mph 1005.6mb 38f 32f
7:00 6 11 mph 1005.5mb 38f 32f
6:54 8 10 mph 1005.4mb 38f 32f
6:48 6 10 mph 1005.3mb 38f 32f
6:42 6 13 mph 1005.2mb 38f 32f
6:36 7 13 mph 1005.1mb 38f 32f
6:30 9 14 mph 1005mb 38f 32f
6:24 8 14 mph 1004.9mb 38f 33f
6:18 9 13 mph 1004.9mb 38f 33f
6:12 7 10 mph 1004.9mb 38f 33f
6:06 7 10 mph 1004.9mb 38f 33f
6:00 6 11 mph 1004.8mb 38f 33f
5:54 7 13 mph 1004.7mb 38f 33f
5:48 9 18 mph 1004.5mb 38f 34f
5:42 10 16 mph 1004.4mb 38f 34f
5:36 11 18 mph 1004.4mb 38f 34f
5:30 10 15 mph 1004.3mb 38f 34f
5:24 10 17 mph 1004.2mb 38f 34f
5:18 13 20 mph - - -
5:12 10 16 mph 1004mb 38f 35f
5:06 9 16 mph 1004mb 38f 35f
5:00 10 17 mph 1003.8mb 38f 35f
4:54 8 15 mph 1003.7mb 38f 35f
4:48 11 17 mph - - -
4:42 13 20 mph 1003.5mb 38f 36f
4:36 8 17 mph 1003.4mb 38f 37f
4:30 8 15 mph 1003.3mb 38f 37f
4:24 11 18 mph 1003.2mb 38f 37f
4:18 14 22 mph 1003.1mb 38f 37f
4:12 6 16 mph 1003.2mb 38f 37f
4:06 11 18 mph 1003mb 38f 37f
4:00 11 17 mph 1003mb 38f 37f
3:54 8 17 mph 1002.9mb 38f 37f
3:48 14 17 mph 1002.9mb 38f 37f
3:42 10 22 mph 1002.9mb 38f 37f
3:36 11 17 mph 1002.7mb 38f 37f
3:30 8 14 mph 1002.8mb 38f 37f
3:24 16 22 mph 1002.7mb 38f 37f
3:18 15 21 mph 1002.6mb 38f 38f
3:12 9 14 mph 1002.6mb 38f 38f
3:06 8 18 mph 1002.6mb 38f 38f
3:00 14 18 mph 1002.5mb 38f 38f
2:54 10 16 mph 1002.5mb 38f 38f
2:48 8 15 mph 1002.5mb 38f 38f
2:42 10 15 mph 1002.4mb 38f 38f
2:36 13 17 mph 1002.3mb 38f 37f
2:30 11 18 mph 1002.3mb 38f 37f
2:24 10 15 mph 1002.2mb 38f 37f
2:18 11 20 mph 1002.3mb 38f 37f
2:12 13 20 mph 1002.2mb 38f 37f
2:06 13 22 mph 1002.3mb 38f 37f
2:00 10 16 mph 1002.3mb 38f 37f
1:54 9 16 mph 1002.2mb 38f 37f
1:48 9 15 mph 1002.3mb 38f 37f
1:42 8 11 mph 1002.4mb 38f 37f
1:36 8 15 mph 1002.3mb 38f 36f
1:30 10 15 mph 1002.3mb 38f 36f
1:24 10 15 mph 1002.4mb 38f 36f
1:18 10 14 mph 1002.4mb 38f 36f
1:12 8 16 mph 1002.4mb 38f 35f
1:06 14 18 mph 1002.3mb 37f 35f
1:00 14 18 mph 1002.4mb 37f 35f
12:54 13 18 mph 1002.3mb 37f 35f
12:48 13 22 mph 1002.3mb 37f 35f
12:42 10 18 mph 1002.4mb 37f 35f
12:36 7 17 mph 1002.4mb 37f 34f
12:30 10 17 mph 1002.5mb 37f 34f
12:24 15 20 mph 1002.6mb 37f 33f
12:18 8 18 mph 1002.6mb 37f 34f
12:12 9 18 mph 1002.6mb 36f 33f
12:06 13 18 mph 1002.6mb 36f 33f
12:00 10 15 mph 1002.7mb 35f 33f
11:54 8 20 mph 1002.8mb 35f 33f
11:48 10 18 mph 1002.6mb 34f 33f
11:42 10 20 mph 1002.8mb 34f 33f
11:36 10 17 mph 1002.8mb 34f 33f
11:30 10 16 mph 1002.8mb 34f 32f
11:24 11 20 mph 1002.9mb 34f 32f
11:18 13 20 mph 1002.9mb 34f 31f
11:12 10 18 mph 1002.8mb 34f 31f
11:06 13 18 mph 1002.8mb 34f 31f
11:00 8 15 mph 1002.8mb 34f 31f
10:54 11 18 mph 1002.9mb 35f 31f
10:48 13 20 mph 1002.9mb 35f 30f
10:42 11 20 mph 1003mb 35f 30f
10:36 11 22 mph 1003mb 35f 30f
10:30 10 17 mph 1003mb 35f 30f
10:24 9 15 mph 1003.1mb 35f 29f
10:18 13 15 mph 1003.1mb 35f 29f
10:12 9 17 mph 1003.1mb 35f 29f
10:06 7 16 mph 1003mb 35f 29f
10:00 11 17 mph 1003mb 35f 29f
9:54 11 18 mph 1003.1mb 35f 29f
9:48 11 18 mph 1003.1mb 35f 28f
9:42 10 20 mph 1003mb 35f 28f
9:36 13 21 mph 1002.9mb 35f 28f
9:30 13 23 mph 1002.7mb 35f 28f
9:24 14 20 mph 1002.7mb 36f 27f
9:18 11 17 mph 1002.7mb 36f 27f
9:12 15 21 mph 1002.7mb 36f 27f
9:06 15 21 mph 1002.6mb 36f 27f
9:00 11 17 mph 1002.7mb 36f 27f
8:54 8 14 mph 1002.7mb 36f 26f
8:48 9 14 mph 1002.7mb 36f 26f
8:42 8 15 mph 1002.6mb 36f 26f
8:36 10 15 mph 1002.5mb 36f 26f
8:30 9 18 mph 1002.4mb 36f 26f
8:24 9 17 mph 1002.4mb 36f 26f
8:18 10 15 mph 1002.4mb 36f 25f
8:12 10 18 mph 1002.4mb 36f 25f
8:06 10 16 mph 1002.4mb 36f 25f
8:00 11 17 mph 1002.3mb 36f 25f
7:54 10 17 mph 1002.2mb 37f 25f
7:48 11 17 mph 1002.1mb 37f 25f
7:42 13 18 mph 1002.1mb 37f 25f